Madison Heights, Michigan
Current Conditions -  °F | °C
As of 3:38 PM on Thursday 29 Jan 2015 (Local Time) from KVLL Reporting Station
Light Snow Light Snow  
Wind Chill: 25°   Ceiling: 500
Heat Index: 34°   Visibility: 0.75mi
Dew Point: 30°   Wind: 12mph
Humidity: 87%   Direction: 300°WNW
Pressure: 29.77"   Gusts: NA
Location:  42.52°N, 83.11°W
Report Text: KVLL 292038Z AUTO 30010KT 3/4SM -SN OVC005 01/M01 A2977 RMK AO2
Loading
Personal Weather Stations






























Interactive Weather Map New forecast layout! Learn more

10-Day Weather Forecast

Advertisements
Track Severe Weather on mobile